Bookmark and Share
Track history (hours):
 

Oceanographic research ship Marcus G. Langseth (USA)

Detailed information on ship capabilities available from ARCUS's ALIAS (Arctic Logistics Information and Support) project.

More information available from US FCC via Universal Licensing System and Coast Guard Vessel Documentation Center.

Last reported at 2014-Feb-08 06:00 UTC. Time now 2014-Apr-24 04:30 UTC.
Position N 33°00' W 078°24'.
Warning: this ship's position is months out of date.

Length 72 m; draft 6.1 m.

Type: Ship. MMSI: 367059880.

Wind from 050 at 18 knots

Waves 1.0 meters (3 feet), 2 second period

Barometer 1021.5 mb
Air temperature 13.0 ° C
Visibility: greater than 10.8 NM
Dewpoint 9.4 ° C

NotesDate/timePositionNaut miles runAvg speedWind from/ knotsBaromVisibWave heightAir tempDewpointWater temp
2014-Feb-08 06:00N 33°00' W 078°24'74 6.2 050 / 181021.510.8 1.013.0 9.4
2014-Feb-07 18:00N 33°36' W 077°06'92 7.7 010 / 121023.510.8 1.010.0 8.1
2014-Feb-07 06:00N 34°36' W 075°42'58 4.8 360 / 181025.0 5.4 1.0 6.0 3.8
2014-Feb-06 18:00N 35°18' W 074°54'147 8.2 340 / 251022.5 5.4 2.0 6.0 4.9
2014-Feb-06 00:00N 37°42' W 074°18'50 8.3 300 / 271009.0 5.4 2.0 7.0 7.0
2014-Feb-05 18:00N 38°30' W 074°00'99 7.4 230 / 211004.0 5.4 1.0 8.0
2014-Feb-05 04:33N 39°59' W 073°03'8 8.3
2014-Feb-05 03:33N 40°04' W 072°55'8 8.4
2014-Feb-05 02:33N 40°09' W 072°46'8 8.4
2014-Feb-05 01:33N 40°15' W 072°37'17 8.5
2014-Feb-04 23:29N 40°25' W 072°19'8 8.2
2014-Feb-04 22:32N 40°32' W 072°14'8 8.7
2014-Feb-04 21:33N 40°38' W 072°05'9 8.7
2014-Feb-04 20:33N 40°44' W 071°57'8 8.4
2014-Feb-04 19:33N 40°49' W 071°49'8 8.4
2014-Feb-04 18:33N 40°55' W 071°41'8 8.4
2014-Feb-04 17:33N 41°01' W 071°33'8 7.9
2014-Feb-04 16:34N 41°07' W 071°26'8 8.1
2014-Feb-04 15:33N 41°15' W 071°26'8 8.3
2014-Feb-04 14:33N 41°24' W 071°25'8 7.8
2014-Feb-04 13:33N 41°31' W 071°21'2 1.7
2014-Feb-04 12:30N 41°32' W 071°19'0 0.0
2014-Feb-04 11:33N 41°32' W 071°19'0 0.0
2014-Feb-04 10:31N 41°32' W 071°19'0 0.0
2014-Feb-04 09:31N 41°32' W 071°19'0 0.0
2014-Feb-04 08:31N 41°32' W 071°19'0 0.0
2014-Feb-04 07:31N 41°32' W 071°19'0 0.0
2014-Feb-04 06:31N 41°32' W 071°19'0 0.0
2014-Feb-04 05:31N 41°32' W 071°19'0 0.0
2014-Feb-04 04:28N 41°32' W 071°19'0 0.0
2014-Feb-04 03:28N 41°32' W 071°19'0 0.0
2014-Feb-04 02:31N 41°32' W 071°19'0 0.0
2014-Feb-04 01:31N 41°32' W 071°19'0 0.0
2014-Feb-04 00:31N 41°32' W 071°19'0 0.0
2014-Feb-03 23:31N 41°32' W 071°19'0 0.0
2014-Feb-03 22:31N 41°32' W 071°19'0 0.0
2014-Feb-03 21:31N 41°32' W 071°19'0 0.0
2014-Feb-03 20:28N 41°32' W 071°19'0 0.0
2014-Feb-03 19:16N 41°32' W 071°19'0 0.0
2014-Feb-03 18:28N 41°32' W 071°19'0 0.0
2014-Feb-03 15:25N 41°32' W 071°19'0 0.0
2014-Feb-03 14:33N 41°32' W 071°19'0 0.0
2014-Feb-03 13:33N 41°32' W 071°19'0 0.0
2014-Feb-03 12:33N 41°32' W 071°19'0 0.0
2014-Feb-03 11:33N 41°32' W 071°19'0 0.0
2014-Feb-03 10:33N 41°32' W 071°19'0 0.0
2014-Feb-03 08:33N 41°32' W 071°19'0 0.0
2014-Feb-03 07:33N 41°32' W 071°19'0 0.0
2014-Feb-03 06:33N 41°32' W 071°19'0 0.0
2014-Feb-03 05:33N 41°32' W 071°19'0 0.0
2014-Feb-03 04:33N 41°32' W 071°19'0 0.0
2014-Feb-03 03:33N 41°32' W 071°19'0 0.0
2014-Feb-03 02:33N 41°32' W 071°19'0 0.0
2014-Feb-03 01:33N 41°32' W 071°19'0 0.0
2014-Feb-03 00:33N 41°32' W 071°19'0 0.0
2014-Feb-02 23:33N 41°32' W 071°19'0 0.0
2014-Feb-02 22:30N 41°32' W 071°19'0 0.0
2014-Feb-02 21:33N 41°32' W 071°19'0 0.0
2014-Feb-02 20:15N 41°32' W 071°19'0 0.0
2014-Feb-02 19:33N 41°32' W 071°19'0 0.0
2014-Feb-02 18:33N 41°32' W 071°19'0 0.0
2014-Feb-02 17:33N 41°32' W 071°19'0 0.0
2014-Feb-02 16:33N 41°32' W 071°19'0 0.0
2014-Feb-02 15:30N 41°32' W 071°19'0 0.0
2014-Feb-02 14:33N 41°32' W 071°19'0 0.0
2014-Feb-02 13:30N 41°32' W 071°19'0 0.0
2014-Feb-02 12:33N 41°32' W 071°19'0 0.0
2014-Feb-02 11:33N 41°32' W 071°19'0 0.0
2014-Feb-02 10:33N 41°32' W 071°19'0 0.0
2014-Feb-02 09:33N 41°32' W 071°19'0 0.0
2014-Feb-02 08:33N 41°32' W 071°19'0 0.0
2014-Feb-02 07:33N 41°32' W 071°19'0 0.0
2014-Feb-02 06:33N 41°32' W 071°19'0 0.0
2014-Feb-02 05:30N 41°32' W 071°19'0 0.0
2014-Feb-02 04:18N 41°32' W 071°19'0 0.0
2014-Feb-02 03:33N 41°32' W 071°19'0 0.0
2014-Feb-02 02:33N 41°32' W 071°19'0 0.0
2014-Feb-02 01:33N 41°32' W 071°19'0 0.0
2014-Feb-02 00:33N 41°32' W 071°19'0 0.0
2014-Feb-01 23:33N 41°32' W 071°19'0 0.0
2014-Feb-01 22:30N 41°32' W 071°19'0 0.0
2014-Feb-01 21:33N 41°32' W 071°19'0 0.0
2014-Feb-01 20:33N 41°32' W 071°19'0 0.0
2014-Feb-01 19:33N 41°32' W 071°19'0 0.0
2014-Feb-01 18:33N 41°32' W 071°19'0 0.0
2014-Feb-01 17:33N 41°32' W 071°19'0 0.0
2014-Feb-01 16:33N 41°32' W 071°19'0 0.0
2014-Feb-01 15:33N 41°32' W 071°19'0 0.0
2014-Feb-01 14:33N 41°32' W 071°19'0 0.0
2014-Feb-01 13:33N 41°32' W 071°19'0 0.0
2014-Feb-01 12:33N 41°32' W 071°19'0 0.0
2014-Feb-01 11:30N 41°32' W 071°19'0 0.0
2014-Feb-01 10:33N 41°32' W 071°19'0 0.0
2014-Feb-01 09:33N 41°32' W 071°19'0 0.0
2014-Feb-01 08:33N 41°32' W 071°19'0 0.0
2014-Feb-01 07:33N 41°32' W 071°19'0 0.0
2014-Feb-01 06:33N 41°32' W 071°19'0 0.0
2014-Feb-01 05:33N 41°32' W 071°19'0 0.0
2014-Feb-01 04:33N 41°32' W 071°19'0 0.0
2014-Feb-01 02:33N 41°32' W 071°19'0 0.0
2014-Feb-01 01:33N 41°32' W 071°19'0 0.0
2014-Feb-01 00:30N 41°32' W 071°19'0 0.0
2014-Jan-31 23:33N 41°32' W 071°19'0 0.0
2014-Jan-31 22:33N 41°32' W 071°19'0 0.0
2014-Jan-31 21:30N 41°32' W 071°19'0 0.0
2014-Jan-31 20:33N 41°32' W 071°19'0 0.0
2014-Jan-31 19:33N 41°32' W 071°19'0 0.0
2014-Jan-31 18:30N 41°32' W 071°19'0 0.0
2014-Jan-31 17:32N 41°32' W 071°19'0 0.0
2014-Jan-31 16:32N 41°32' W 071°19'0 0.0
2014-Jan-31 15:33N 41°32' W 071°19'0 0.0
2014-Jan-31 14:32N 41°32' W 071°19'0 0.0
2014-Jan-31 13:29N 41°32' W 071°19'0 0.0
2014-Jan-31 12:32N 41°32' W 071°19'0 0.0
2014-Jan-31 11:32N 41°32' W 071°19'0 0.0
2014-Jan-31 10:32N 41°32' W 071°19'0 0.0
2014-Jan-31 09:29N 41°32' W 071°19'0 0.0
2014-Jan-31 08:32N 41°32' W 071°19'0 0.0
2014-Jan-31 07:32N 41°32' W 071°19'0 0.0
2014-Jan-31 06:32N 41°32' W 071°19'0 0.0
2014-Jan-31 05:32N 41°32' W 071°19'0 0.0
2014-Jan-31 04:32N 41°32' W 071°19'0 0.0
2014-Jan-31 03:32N 41°32' W 071°19'0 0.0
2014-Jan-31 02:32N 41°32' W 071°19'0 0.0
2014-Jan-31 01:32N 41°32' W 071°19'0 0.0
2014-Jan-31 00:32N 41°32' W 071°19'0 0.0
2014-Jan-30 23:32N 41°32' W 071°19'0 0.0
2014-Jan-30 22:29N 41°32' W 071°19'0 0.0
2014-Jan-30 21:33N 41°32' W 071°19'0 0.0
2014-Jan-30 20:33N 41°32' W 071°19'0 0.0
2014-Jan-30 19:33N 41°32' W 071°19'0 0.0
2014-Jan-30 18:33N 41°32' W 071°19'0 0.0
2014-Jan-30 17:32N 41°32' W 071°19'0 0.0
2014-Jan-30 16:32N 41°32' W 071°19'0 0.0
2014-Jan-30 15:33N 41°32' W 071°19'0 0.0
2014-Jan-30 14:32N 41°32' W 071°19'0 0.0
2014-Jan-30 13:32N 41°32' W 071°19'0 0.0
2014-Jan-30 12:32N 41°32' W 071°19'0 0.0
2014-Jan-30 11:29N 41°32' W 071°19'0 0.0
2014-Jan-30 10:32N 41°32' W 071°19'0 0.0
2014-Jan-30 09:32N 41°32' W 071°19'0 0.0
2014-Jan-30 08:33N 41°32' W 071°19'0 0.0
2014-Jan-30 07:32N 41°32' W 071°19'0 0.0
2014-Jan-30 06:32N 41°32' W 071°19'0 0.0
2014-Jan-30 05:32N 41°32' W 071°19'0 0.0
2014-Jan-30 04:32N 41°32' W 071°19'0 0.0
2014-Jan-30 03:32N 41°32' W 071°19'0 0.0
2014-Jan-30 02:29N 41°32' W 071°19'0 0.0
2014-Jan-30 01:32N 41°32' W 071°19'0 0.0
2014-Jan-30 00:32N 41°32' W 071°19'0 0.0
2014-Jan-29 22:32N 41°32' W 071°19'0 0.0
2014-Jan-29 22:05N 41°32' W 071°19'0 0.0
2014-Jan-29 21:32N 41°32' W 071°19'0 0.0
2014-Jan-29 20:32N 41°32' W 071°19'0 0.0
2014-Jan-29 19:32N 41°32' W 071°19'0 0.0
2014-Jan-29 18:33N 41°32' W 071°19'0 0.0
2014-Jan-29 17:32N 41°32' W 071°19'0 0.0
2014-Jan-29 16:33N 41°32' W 071°19'0 0.0
2014-Jan-29 15:33N 41°32' W 071°19'0 0.0
2014-Jan-29 14:32N 41°32' W 071°19'0 0.0
2014-Jan-29 13:32N 41°32' W 071°19'0 0.0
2014-Jan-29 12:32N 41°32' W 071°19'0 0.0
2014-Jan-29 11:32N 41°32' W 071°19'0 0.0
2014-Jan-29 10:32N 41°32' W 071°19'0 0.0
2014-Jan-29 09:29N 41°32' W 071°19'0 0.0
2014-Jan-29 08:32N 41°32' W 071°19'0 0.0
2014-Jan-29 07:32N 41°32' W 071°19'  

Dump ship's entire track history

sailing weather and tide predictions

Marcus G. Langseth — WDC6698 — position and weather